sensor_id;sensor_type;location;lat;lon;timestamp;pressure;altitude;pressure_sealevel;temperature;humidity
141;BME280;65;48.778;9.160;2022-10-31T00:01:26;99009.19;;;11.42;100.00
141;BME280;65;48.778;9.160;2022-10-31T00:03:52;99019.84;;;11.40;100.00
141;BME280;65;48.778;9.160;2022-10-31T00:06:17;99016.50;;;11.37;100.00
141;BME280;65;48.778;9.160;2022-10-31T00:08:51;99014.81;;;11.36;100.00
141;BME280;65;48.778;9.160;2022-10-31T00:11:16;99014.81;;;11.36;100.00
141;BME280;65;48.778;9.160;2022-10-31T00:13:42;99012.22;;;11.34;100.00
141;BME280;65;48.778;9.160;2022-10-31T00:16:17;99013.00;;;11.36;100.00
141;BME280;65;48.778;9.160;2022-10-31T00:18:52;99011.38;;;11.34;100.00
141;BME280;65;48.778;9.160;2022-10-31T00:21:18;99002.66;;;11.32;100.00
141;BME280;65;48.778;9.160;2022-10-31T00:23:44;99018.47;;;11.33;100.00
141;BME280;65;48.778;9.160;2022-10-31T00:26:09;99013.34;;;11.30;100.00
141;BME280;65;48.778;9.160;2022-10-31T00:28:35;99015.22;;;11.28;100.00
141;BME280;65;48.778;9.160;2022-10-31T00:31:01;99013.56;;;11.26;100.00
141;BME280;65;48.778;9.160;2022-10-31T00:33:27;99012.81;;;11.24;100.00
141;BME280;65;48.778;9.160;2022-10-31T00:35:52;99009.91;;;11.28;100.00
141;BME280;65;48.778;9.160;2022-10-31T00:38:18;99013.75;;;11.23;100.00
141;BME280;65;48.778;9.160;2022-10-31T00:40:43;99014.75;;;11.20;100.00
141;BME280;65;48.778;9.160;2022-10-31T00:43:08;99014.84;;;11.19;100.00
141;BME280;65;48.778;9.160;2022-10-31T00:45:34;99016.63;;;11.18;100.00
141;BME280;65;48.778;9.160;2022-10-31T00:47:59;99022.94;;;11.16;100.00
141;BME280;65;48.778;9.160;2022-10-31T00:50:24;99020.38;;;11.14;100.00
141;BME280;65;48.778;9.160;2022-10-31T00:52:50;99009.88;;;11.13;100.00
141;BME280;65;48.778;9.160;2022-10-31T00:55:15;99009.19;;;11.09;100.00
141;BME280;65;48.778;9.160;2022-10-31T00:57:40;99017.19;;;11.07;100.00
141;BME280;65;48.778;9.160;2022-10-31T01:00:06;99011.03;;;11.07;100.00
141;BME280;65;48.778;9.160;2022-10-31T01:02:32;99007.53;;;11.06;100.00
141;BME280;65;48.778;9.160;2022-10-31T01:04:57;99012.91;;;11.05;100.00
141;BME280;65;48.778;9.160;2022-10-31T01:07:22;99007.72;;;11.03;100.00
141;BME280;65;48.778;9.160;2022-10-31T01:09:48;99010.34;;;11.03;100.00
141;BME280;65;48.778;9.160;2022-10-31T01:12:13;99007.00;;;11.00;100.00
141;BME280;65;48.778;9.160;2022-10-31T01:14:43;99000.06;;;10.97;100.00
141;BME280;65;48.778;9.160;2022-10-31T01:17:08;99006.28;;;10.96;100.00
141;BME280;65;48.778;9.160;2022-10-31T01:19:34;99004.56;;;10.95;100.00
141;BME280;65;48.778;9.160;2022-10-31T01:21:59;99002.00;;;10.94;100.00
141;BME280;65;48.778;9.160;2022-10-31T01:24:24;99002.88;;;10.94;100.00
141;BME280;65;48.778;9.160;2022-10-31T01:26:49;99004.56;;;10.95;100.00
141;BME280;65;48.778;9.160;2022-10-31T01:29:15;98995.00;;;10.93;100.00
141;BME280;65;48.778;9.160;2022-10-31T01:31:40;99003.03;;;10.91;100.00
141;BME280;65;48.778;9.160;2022-10-31T01:34:06;99005.34;;;10.97;100.00
141;BME280;65;48.778;9.160;2022-10-31T01:36:34;98997.50;;;10.96;100.00
141;BME280;65;48.778;9.160;2022-10-31T01:39:06;99006.16;;;10.99;100.00
141;BME280;65;48.778;9.160;2022-10-31T01:41:35;99002.56;;;11.00;100.00
141;BME280;65;48.778;9.160;2022-10-31T01:44:44;98998.06;;;11.02;100.00
141;BME280;65;48.778;9.160;2022-10-31T01:46:52;99002.25;;;11.06;100.00
141;BME280;65;48.778;9.160;2022-10-31T01:49:24;98998.69;;;11.07;100.00
141;BME280;65;48.778;9.160;2022-10-31T01:51:54;98999.59;;;11.06;100.00
141;BME280;65;48.778;9.160;2022-10-31T01:54:29;98999.78;;;11.03;100.00
141;BME280;65;48.778;9.160;2022-10-31T01:56:57;98994.47;;;11.03;100.00
141;BME280;65;48.778;9.160;2022-10-31T01:59:26;98994.66;;;11.00;100.00
141;BME280;65;48.778;9.160;2022-10-31T02:01:53;98993.88;;;10.98;100.00
141;BME280;65;48.778;9.160;2022-10-31T02:04:19;98987.78;;;10.96;100.00
141;BME280;65;48.778;9.160;2022-10-31T02:06:49;98993.06;;;10.96;100.00
141;BME280;65;48.778;9.160;2022-10-31T02:09:16;98987.06;;;10.93;100.00
141;BME280;65;48.778;9.160;2022-10-31T02:11:46;98994.31;;;10.89;100.00
141;BME280;65;48.778;9.160;2022-10-31T02:14:11;98990.81;;;10.89;100.00
141;BME280;65;48.778;9.160;2022-10-31T02:16:37;98985.53;;;10.89;100.00
141;BME280;65;48.778;9.160;2022-10-31T02:19:04;98992.59;;;10.88;100.00
141;BME280;65;48.778;9.160;2022-10-31T02:27:10;98990.03;;;10.87;100.00
141;BME280;65;48.778;9.160;2022-10-31T02:35:32;98989.34;;;10.83;100.00
141;BME280;65;48.778;9.160;2022-10-31T02:44:05;98994.31;;;10.72;100.00
141;BME280;65;48.778;9.160;2022-10-31T02:46:49;98990.13;;;10.68;100.00
141;BME280;65;48.778;9.160;2022-10-31T02:51:53;98986.72;;;10.66;100.00
141;BME280;65;48.778;9.160;2022-10-31T02:54:22;98980.72;;;10.62;100.00
141;BME280;65;48.778;9.160;2022-10-31T02:56:48;98987.09;;;10.58;100.00
141;BME280;65;48.778;9.160;2022-10-31T02:59:16;98989.13;;;10.53;100.00
141;BME280;65;48.778;9.160;2022-10-31T03:12:02;98976.44;;;10.42;100.00
141;BME280;65;48.778;9.160;2022-10-31T03:17:57;98985.34;;;10.40;100.00
141;BME280;65;48.778;9.160;2022-10-31T03:20:39;98974.84;;;10.38;100.00
141;BME280;65;48.778;9.160;2022-10-31T03:23:09;98982.00;;;10.36;100.00
141;BME280;65;48.778;9.160;2022-10-31T03:25:37;98982.94;;;10.35;100.00
141;BME280;65;48.778;9.160;2022-10-31T03:28:05;98984.66;;;10.36;100.00
141;BME280;65;48.778;9.160;2022-10-31T03:30:33;98984.66;;;10.36;100.00
141;BME280;65;48.778;9.160;2022-10-31T03:33:02;98989.16;;;10.34;100.00
141;BME280;65;48.778;9.160;2022-10-31T03:35:29;98987.28;;;10.36;100.00
141;BME280;65;48.778;9.160;2022-10-31T03:37:56;98986.25;;;10.40;100.00
141;BME280;65;48.778;9.160;2022-10-31T03:40:27;98991.44;;;10.42;100.00
141;BME280;65;48.778;9.160;2022-10-31T03:43:00;98982.78;;;10.38;100.00
141;BME280;65;48.778;9.160;2022-10-31T03:45:30;98985.31;;;10.41;100.00
141;BME280;65;48.778;9.160;2022-10-31T03:47:57;98989.66;;;10.42;100.00
141;BME280;65;48.778;9.160;2022-10-31T03:50:28;98992.41;;;10.39;100.00
141;BME280;65;48.778;9.160;2022-10-31T03:52:58;98988.88;;;10.40;100.00
141;BME280;65;48.778;9.160;2022-10-31T03:55:34;98985.44;;;10.38;100.00
141;BME280;65;48.778;9.160;2022-10-31T03:58:25;98993.22;;;10.41;100.00
141;BME280;65;48.778;9.160;2022-10-31T04:00:54;98988.88;;;10.40;100.00
141;BME280;65;48.778;9.160;2022-10-31T04:03:25;98986.25;;;10.40;100.00
141;BME280;65;48.778;9.160;2022-10-31T04:05:54;98988.06;;;10.38;100.00
141;BME280;65;48.778;9.160;2022-10-31T04:08:23;98987.22;;;10.38;100.00
141;BME280;65;48.778;9.160;2022-10-31T04:10:51;98994.34;;;10.36;100.00
141;BME280;65;48.778;9.160;2022-10-31T04:13:23;98989.16;;;10.34;100.00
141;BME280;65;48.778;9.160;2022-10-31T04:15:54;98987.53;;;10.32;100.00
141;BME280;65;48.778;9.160;2022-10-31T04:18:20;98981.22;;;10.34;100.00
141;BME280;65;48.778;9.160;2022-10-31T04:20:46;98975.09;;;10.34;100.00
141;BME280;65;48.778;9.160;2022-10-31T04:23:20;98975.16;;;10.32;100.00
141;BME280;65;48.778;9.160;2022-10-31T04:25:45;98970.03;;;10.29;100.00
141;BME280;65;48.778;9.160;2022-10-31T04:28:11;98970.88;;;10.30;100.00
141;BME280;65;48.778;9.160;2022-10-31T04:30:41;98973.75;;;10.25;100.00
141;BME280;65;48.778;9.160;2022-10-31T04:33:07;98975.69;;;10.22;100.00
141;BME280;65;48.778;9.160;2022-10-31T04:35:32;98974.03;;;10.19;100.00
141;BME280;65;48.778;9.160;2022-10-31T04:37:57;98972.31;;;10.18;100.00
141;BME280;65;48.778;9.160;2022-10-31T04:40:23;98974.19;;;10.16;100.00
141;BME280;65;48.778;9.160;2022-10-31T04:42:48;98965.41;;;10.15;100.00
141;BME280;65;48.778;9.160;2022-10-31T04:45:13;98960.34;;;10.11;100.00
141;BME280;65;48.778;9.160;2022-10-31T04:47:39;98963.13;;;10.08;100.00
141;BME280;65;48.778;9.160;2022-10-31T04:50:04;98954.59;;;10.03;100.00
141;BME280;65;48.778;9.160;2022-10-31T04:52:30;98955.44;;;10.03;100.00
141;BME280;65;48.778;9.160;2022-10-31T04:54:55;98955.59;;;10.00;100.00
141;BME280;65;48.778;9.160;2022-10-31T04:57:20;98956.53;;;9.99;100.00
141;BME280;65;48.778;9.160;2022-10-31T04:59:46;98953.03;;;9.99;100.00
141;BME280;65;48.778;9.160;2022-10-31T05:02:11;98952.25;;;9.97;100.00
141;BME280;65;48.778;9.160;2022-10-31T05:04:37;98951.31;;;9.98;100.00
141;BME280;65;48.778;9.160;2022-10-31T05:07:02;98937.31;;;9.96;100.00
141;BME280;65;48.778;9.160;2022-10-31T05:09:27;98940.81;;;9.96;100.00
141;BME280;65;48.778;9.160;2022-10-31T05:11:52;98940.03;;;9.94;100.00
141;BME280;65;48.778;9.160;2022-10-31T05:14:18;98934.13;;;9.89;100.00
141;BME280;65;48.778;9.160;2022-10-31T05:16:43;98942.91;;;9.90;100.00
141;BME280;65;48.778;9.160;2022-10-31T05:19:10;98942.97;;;9.88;100.00
141;BME280;65;48.778;9.160;2022-10-31T05:21:35;98948.34;;;9.87;100.00
141;BME280;65;48.778;9.160;2022-10-31T05:24:00;98936.19;;;9.82;100.00
141;BME280;65;48.778;9.160;2022-10-31T05:26:26;98938.81;;;9.82;100.00
141;BME280;65;48.778;9.160;2022-10-31T05:28:51;98938.97;;;9.79;100.00
141;BME280;65;48.778;9.160;2022-10-31T05:31:16;98933.69;;;9.79;100.00
141;BME280;65;48.778;9.160;2022-10-31T05:33:41;98934.63;;;9.78;100.00
141;BME280;65;48.778;9.160;2022-10-31T05:36:07;98933.91;;;9.75;100.00
141;BME280;65;48.778;9.160;2022-10-31T05:38:32;98931.28;;;9.75;100.00
141;BME280;65;48.778;9.160;2022-10-31T05:40:58;98931.19;;;9.76;100.00
141;BME280;65;48.778;9.160;2022-10-31T05:43:25;98930.50;;;9.73;100.00
141;BME280;65;48.778;9.160;2022-10-31T05:45:54;98921.72;;;9.72;100.00
141;BME280;65;48.778;9.160;2022-10-31T05:48:19;98928.63;;;9.75;100.00
141;BME280;65;48.778;9.160;2022-10-31T05:50:47;98927.72;;;9.76;100.00
141;BME280;65;48.778;9.160;2022-10-31T05:53:13;98923.34;;;9.75;100.00
141;BME280;65;48.778;9.160;2022-10-31T05:55:38;98923.44;;;9.73;100.00
141;BME280;65;48.778;9.160;2022-10-31T05:58:06;98929.63;;;9.72;100.00
141;BME280;65;48.778;9.160;2022-10-31T06:00:31;98922.66;;;9.71;100.00
141;BME280;65;48.778;9.160;2022-10-31T06:02:58;98920.78;;;9.73;100.00
141;BME280;65;48.778;9.160;2022-10-31T06:05:24;98928.72;;;9.73;100.00
141;BME280;65;48.778;9.160;2022-10-31T06:07:49;98932.13;;;9.75;100.00
141;BME280;65;48.778;9.160;2022-10-31T06:10:15;98922.50;;;9.74;100.00
141;BME280;65;48.778;9.160;2022-10-31T06:12:40;98924.22;;;9.75;100.00
141;BME280;65;48.778;9.160;2022-10-31T06:15:07;98919.00;;;9.74;100.00
141;BME280;65;48.778;9.160;2022-10-31T06:17:34;98922.56;;;9.73;100.00
141;BME280;65;48.778;9.160;2022-10-31T06:20:00;98919.94;;;9.73;100.00
141;BME280;65;48.778;9.160;2022-10-31T06:22:25;98923.44;;;9.73;100.00
141;BME280;65;48.778;9.160;2022-10-31T06:24:51;98920.56;;;9.78;100.00
141;BME280;65;48.778;9.160;2022-10-31T06:27:16;98917.84;;;9.79;100.00
141;BME280;65;48.778;9.160;2022-10-31T06:29:41;98915.22;;;9.79;100.00
141;BME280;65;48.778;9.160;2022-10-31T06:32:10;98915.94;;;9.83;100.00
141;BME280;65;48.778;9.160;2022-10-31T06:34:36;98916.00;;;9.81;100.00
141;BME280;65;48.778;9.160;2022-10-31T06:37:01;98924.56;;;9.87;100.00
141;BME280;65;48.778;9.160;2022-10-31T06:39:26;98926.00;;;9.94;100.00
141;BME280;65;48.778;9.160;2022-10-31T06:41:52;98919.69;;;9.96;100.00
141;BME280;65;48.778;9.160;2022-10-31T06:44:17;98924.91;;;9.98;100.00
141;BME280;65;48.778;9.160;2022-10-31T06:46:42;98925.53;;;10.03;100.00
141;BME280;65;48.778;9.160;2022-10-31T06:49:08;98933.31;;;10.06;100.00
141;BME280;65;48.778;9.160;2022-10-31T06:51:33;98926.16;;;10.08;100.00
141;BME280;65;48.778;9.160;2022-10-31T06:53:58;98933.94;;;10.11;100.00
141;BME280;65;48.778;9.160;2022-10-31T06:56:24;98919.72;;;10.13;100.00
141;BME280;65;48.778;9.160;2022-10-31T06:58:49;98927.56;;;10.15;100.00
141;BME280;65;48.778;9.160;2022-10-31T07:01:14;98935.00;;;10.26;100.00
141;BME280;65;48.778;9.160;2022-10-31T07:03:44;98931.41;;;10.27;100.00
141;BME280;65;48.778;9.160;2022-10-31T07:06:09;98934.44;;;10.36;100.00
141;BME280;65;48.778;9.160;2022-10-31T07:08:34;98936.81;;;10.42;100.00
141;BME280;65;48.778;9.160;2022-10-31T07:11:00;98926.78;;;10.49;100.00
141;BME280;65;48.778;9.160;2022-10-31T07:13:25;98928.78;;;10.61;100.00
141;BME280;65;48.778;9.160;2022-10-31T07:15:52;98938.81;;;10.72;100.00
141;BME280;65;48.778;9.160;2022-10-31T07:18:38;98930.56;;;10.78;100.00
141;BME280;65;48.778;9.160;2022-10-31T07:21:04;98935.28;;;10.89;100.00
141;BME280;65;48.778;9.160;2022-10-31T07:23:29;98937.53;;;10.96;100.00
141;BME280;65;48.778;9.160;2022-10-31T07:25:58;98947.66;;;11.05;100.00
141;BME280;65;48.778;9.160;2022-10-31T07:28:25;98947.84;;;11.18;100.00
141;BME280;65;48.778;9.160;2022-10-31T07:30:56;98947.34;;;11.27;100.00
141;BME280;65;48.778;9.160;2022-10-31T07:33:22;98945.56;;;11.28;100.00
141;BME280;65;48.778;9.160;2022-10-31T07:35:47;98946.75;;;11.38;100.00
141;BME280;65;48.778;9.160;2022-10-31T07:38:14;98938.31;;;11.47;100.00
141;BME280;65;48.778;9.160;2022-10-31T07:40:41;98940.41;;;11.58;100.00
141;BME280;65;48.778;9.160;2022-10-31T07:43:07;98926.72;;;11.65;100.00
141;BME280;65;48.778;9.160;2022-10-31T07:45:33;98928.44;;;11.66;100.00
141;BME280;65;48.778;9.160;2022-10-31T07:47:58;98932.22;;;11.78;100.00
141;BME280;65;48.778;9.160;2022-10-31T07:50:26;98931.03;;;11.84;100.00
141;BME280;65;48.778;9.160;2022-10-31T07:53:06;98932.56;;;11.88;100.00
141;BME280;65;48.778;9.160;2022-10-31T07:55:32;98931.09;;;11.98;100.00
141;BME280;65;48.778;9.160;2022-10-31T07:58:06;98932.09;;;12.11;100.00
141;BME280;65;48.778;9.160;2022-10-31T08:00:33;98919.88;;;12.24;100.00
141;BME280;65;48.778;9.160;2022-10-31T08:03:00;98926.97;;;12.24;100.00
141;BME280;65;48.778;9.160;2022-10-31T08:05:26;98929.75;;;12.37;100.00
141;BME280;65;48.778;9.160;2022-10-31T08:07:52;98930.88;;;12.32;100.00
141;BME280;65;48.778;9.160;2022-10-31T08:10:17;98933.94;;;12.41;100.00
141;BME280;65;48.778;9.160;2022-10-31T08:12:42;98928.53;;;12.42;100.00
141;BME280;65;48.778;9.160;2022-10-31T08:15:08;98929.25;;;12.60;100.00
141;BME280;65;48.778;9.160;2022-10-31T08:17:37;98926.38;;;12.79;100.00
141;BME280;65;48.778;9.160;2022-10-31T08:20:07;98929.22;;;12.90;100.00
141;BME280;65;48.778;9.160;2022-10-31T08:22:32;98940.22;;;12.98;100.00
141;BME280;65;48.778;9.160;2022-10-31T08:24:58;98935.19;;;12.93;100.00
141;BME280;65;48.778;9.160;2022-10-31T08:27:23;98934.25;;;13.09;100.00
141;BME280;65;48.778;9.160;2022-10-31T08:29:48;98931.06;;;13.18;100.00
141;BME280;65;48.778;9.160;2022-10-31T08:32:14;98927.94;;;13.25;100.00
141;BME280;65;48.778;9.160;2022-10-31T08:34:42;98925.38;;;13.24;100.00
141;BME280;65;48.778;9.160;2022-10-31T08:37:07;98929.16;;;13.20;100.00
141;BME280;65;48.778;9.160;2022-10-31T08:39:32;98923.56;;;13.24;100.00
141;BME280;65;48.778;9.160;2022-10-31T08:41:58;98922.34;;;13.44;100.00
141;BME280;65;48.778;9.160;2022-10-31T08:44:23;98918.06;;;13.56;100.00
141;BME280;65;48.778;9.160;2022-10-31T08:46:48;98913.59;;;13.56;100.00
141;BME280;65;48.778;9.160;2022-10-31T08:49:14;98916.22;;;13.71;100.00
141;BME280;65;48.778;9.160;2022-10-31T08:51:39;98913.09;;;13.64;100.00
141;BME280;65;48.778;9.160;2022-10-31T08:54:05;98908.69;;;13.50;100.00
141;BME280;65;48.778;9.160;2022-10-31T08:56:30;98904.03;;;13.81;99.86
141;BME280;65;48.778;9.160;2022-10-31T08:58:55;98906.78;;;13.93;99.79
141;BME280;65;48.778;9.160;2022-10-31T09:01:21;98909.63;;;13.90;99.52
141;BME280;65;48.778;9.160;2022-10-31T09:03:46;98893.50;;;13.93;99.96
141;BME280;65;48.778;9.160;2022-10-31T09:06:11;98904.50;;;14.14;99.40
141;BME280;65;48.778;9.160;2022-10-31T09:08:37;98903.81;;;14.38;97.15
141;BME280;65;48.778;9.160;2022-10-31T09:11:03;98907.41;;;14.24;97.46
141;BME280;65;48.778;9.160;2022-10-31T09:13:29;98905.59;;;14.24;98.71
141;BME280;65;48.778;9.160;2022-10-31T09:15:56;98906.97;;;13.90;98.06
141;BME280;65;48.778;9.160;2022-10-31T09:18:22;98901.72;;;14.03;100.00
141;BME280;65;48.778;9.160;2022-10-31T09:20:48;98899.09;;;14.16;97.18
141;BME280;65;48.778;9.160;2022-10-31T09:23:19;98903.69;;;14.27;96.48
141;BME280;65;48.778;9.160;2022-10-31T09:25:46;98892.03;;;14.42;96.23
141;BME280;65;48.778;9.160;2022-10-31T09:28:13;98892.53;;;14.61;95.51
141;BME280;65;48.778;9.160;2022-10-31T09:30:39;98892.13;;;14.80;93.19
141;BME280;65;48.778;9.160;2022-10-31T09:33:06;98886.03;;;14.91;92.35
141;BME280;65;48.778;9.160;2022-10-31T09:35:32;98886.78;;;14.93;95.11
141;BME280;65;48.778;9.160;2022-10-31T09:37:59;98882.31;;;14.68;93.42
141;BME280;65;48.778;9.160;2022-10-31T09:43:09;98887.00;;;14.90;91.92
141;BME280;65;48.778;9.160;2022-10-31T09:48:09;98887.63;;;14.80;91.20
141;BME280;65;48.778;9.160;2022-10-31T09:53:11;98883.81;;;15.10;94.11
141;BME280;65;48.778;9.160;2022-10-31T09:55:44;98885.47;;;15.36;90.38
141;BME280;65;48.778;9.160;2022-10-31T09:58:25;98889.22;;;15.34;90.37
141;BME280;65;48.778;9.160;2022-10-31T10:00:51;98878.63;;;15.58;90.03
141;BME280;65;48.778;9.160;2022-10-31T10:03:27;98877.59;;;15.35;89.06
141;BME280;65;48.778;9.160;2022-10-31T10:06:04;98882.88;;;15.47;89.66
141;BME280;65;48.778;9.160;2022-10-31T10:09:03;98876.56;;;15.74;87.08
141;BME280;65;48.778;9.160;2022-10-31T10:23:46;98867.94;;;16.18;84.35
141;BME280;65;48.778;9.160;2022-10-31T10:26:21;98863.97;;;16.00;85.95
141;BME280;65;48.778;9.160;2022-10-31T10:28:57;98865.50;;;15.91;85.07
141;BME280;65;48.778;9.160;2022-10-31T10:31:28;98868.03;;;15.56;89.29
141;BME280;65;48.778;9.160;2022-10-31T10:34:22;98850.09;;;15.84;89.73
141;BME280;65;48.778;9.160;2022-10-31T10:37:07;98857.41;;;15.93;86.08
141;BME280;65;48.778;9.160;2022-10-31T10:39:41;98862.81;;;16.39;85.19
141;BME280;65;48.778;9.160;2022-10-31T10:42:13;98847.56;;;16.63;83.01
141;BME280;65;48.778;9.160;2022-10-31T10:44:57;98856.41;;;16.77;80.95
141;BME280;65;48.778;9.160;2022-10-31T10:47:43;98847.91;;;16.83;83.98
141;BME280;65;48.778;9.160;2022-10-31T10:53:21;98845.72;;;16.99;81.10
141;BME280;65;48.778;9.160;2022-10-31T10:58:08;98838.69;;;17.09;78.55
141;BME280;65;48.778;9.160;2022-10-31T11:00:45;98834.06;;;16.78;83.78
141;BME280;65;48.778;9.160;2022-10-31T11:03:16;98824.34;;;16.77;82.49
141;BME280;65;48.778;9.160;2022-10-31T11:05:53;98818.66;;;16.81;83.00
141;BME280;65;48.778;9.160;2022-10-31T11:08:33;98825.28;;;16.75;82.05
141;BME280;65;48.778;9.160;2022-10-31T11:11:05;98812.47;;;16.92;83.76
141;BME280;65;48.778;9.160;2022-10-31T11:13:34;98811.84;;;16.99;81.00
141;BME280;65;48.778;9.160;2022-10-31T11:16:09;98801.53;;;16.95;79.95
141;BME280;65;48.778;9.160;2022-10-31T11:18:39;98804.94;;;17.08;79.12
141;BME280;65;48.778;9.160;2022-10-31T11:21:05;98798.06;;;16.59;80.02
141;BME280;65;48.778;9.160;2022-10-31T11:23:32;98801.41;;;16.74;82.34
141;BME280;65;48.778;9.160;2022-10-31T11:25:59;98796.41;;;17.25;78.74
141;BME280;65;48.778;9.160;2022-10-31T11:28:26;98784.34;;;17.53;75.94
141;BME280;65;48.778;9.160;2022-10-31T11:30:56;98783.50;;;17.53;77.36
141;BME280;65;48.778;9.160;2022-10-31T11:33:25;98783.31;;;17.77;75.68
141;BME280;65;48.778;9.160;2022-10-31T11:35:53;98781.38;;;17.79;80.11
141;BME280;65;48.778;9.160;2022-10-31T11:38:21;98777.91;;;17.88;77.68
141;BME280;65;48.778;9.160;2022-10-31T11:40:58;98771.69;;;17.55;77.58
141;BME280;65;48.778;9.160;2022-10-31T11:43:24;98766.25;;;17.89;77.06
141;BME280;65;48.778;9.160;2022-10-31T11:45:50;98760.53;;;18.14;77.96
141;BME280;65;48.778;9.160;2022-10-31T11:48:19;98757.09;;;18.23;73.60
141;BME280;65;48.778;9.160;2022-10-31T11:50:56;98762.16;;;18.26;73.87
141;BME280;65;48.778;9.160;2022-10-31T11:53:32;98761.66;;;18.12;74.00
141;BME280;65;48.778;9.160;2022-10-31T11:56:10;98756.72;;;17.75;74.38
141;BME280;65;48.778;9.160;2022-10-31T11:58:37;98760.16;;;18.19;76.49
141;BME280;65;48.778;9.160;2022-10-31T12:01:03;98754.41;;;18.02;74.14
141;BME280;65;48.778;9.160;2022-10-31T12:03:42;98753.66;;;17.80;74.97
141;BME280;65;48.778;9.160;2022-10-31T12:06:16;98754.94;;;18.17;73.72
141;BME280;65;48.778;9.160;2022-10-31T12:08:55;98741.59;;;18.27;73.71
141;BME280;65;48.778;9.160;2022-10-31T12:11:32;98735.41;;;18.26;76.55
141;BME280;65;48.778;9.160;2022-10-31T12:22:02;98719.72;;;18.63;73.14
141;BME280;65;48.778;9.160;2022-10-31T12:35:26;98700.78;;;18.55;73.53
141;BME280;65;48.778;9.160;2022-10-31T12:43:47;98695.94;;;18.19;78.11
141;BME280;65;48.778;9.160;2022-10-31T12:46:25;98686.88;;;18.10;80.60
141;BME280;65;48.778;9.160;2022-10-31T12:57:28;98677.09;;;17.79;80.39
141;BME280;65;48.778;9.160;2022-10-31T13:02:42;98648.09;;;17.63;81.87
141;BME280;65;48.778;9.160;2022-10-31T13:05:33;98653.53;;;17.73;83.41
141;BME280;65;48.778;9.160;2022-10-31T13:13:19;98654.72;;;17.80;81.71
141;BME280;65;48.778;9.160;2022-10-31T13:15:51;98648.91;;;17.75;82.29
141;BME280;65;48.778;9.160;2022-10-31T13:18:43;98636.06;;;17.68;81.50
141;BME280;65;48.778;9.160;2022-10-31T13:21:23;98633.16;;;17.60;83.38
141;BME280;65;48.778;9.160;2022-10-31T13:23:50;98625.81;;;17.53;84.02
141;BME280;65;48.778;9.160;2022-10-31T13:26:42;98617.53;;;17.56;83.44
141;BME280;65;48.778;9.160;2022-10-31T13:31:42;98620.66;;;17.61;83.11
141;BME280;65;48.778;9.160;2022-10-31T13:34:41;98633.72;;;17.75;84.20
141;BME280;65;48.778;9.160;2022-10-31T13:45:35;98625.78;;;18.86;78.59
141;BME280;65;48.778;9.160;2022-10-31T13:50:32;98614.56;;;19.11;76.31
141;BME280;65;48.778;9.160;2022-10-31T13:53:19;98600.69;;;18.96;78.13
141;BME280;65;48.778;9.160;2022-10-31T13:55:48;98605.75;;;18.80;78.85
141;BME280;65;48.778;9.160;2022-10-31T13:58:23;98599.13;;;18.84;76.68
141;BME280;65;48.778;9.160;2022-10-31T14:03:33;98599.50;;;18.60;78.03
141;BME280;65;48.778;9.160;2022-10-31T14:06:00;98594.06;;;18.41;80.48
141;BME280;65;48.778;9.160;2022-10-31T14:08:27;98589.78;;;18.29;82.39
141;BME280;65;48.778;9.160;2022-10-31T14:10:55;98604.44;;;18.25;81.97
141;BME280;65;48.778;9.160;2022-10-31T14:13:25;98592.56;;;18.18;81.91
141;BME280;65;48.778;9.160;2022-10-31T14:15:56;98591.31;;;18.22;78.84
141;BME280;65;48.778;9.160;2022-10-31T14:18:31;98581.56;;;18.11;81.63
141;BME280;65;48.778;9.160;2022-10-31T14:20:57;98581.13;;;18.06;81.45
141;BME280;65;48.778;9.160;2022-10-31T14:23:33;98578.59;;;18.05;80.29
141;BME280;65;48.778;9.160;2022-10-31T14:28:53;98578.88;;;18.11;82.42
141;BME280;65;48.778;9.160;2022-10-31T14:31:37;98581.09;;;18.96;78.01
141;BME280;65;48.778;9.160;2022-10-31T14:34:19;98574.91;;;19.44;72.75
141;BME280;65;48.778;9.160;2022-10-31T14:39:34;98572.47;;;18.63;77.39
141;BME280;65;48.778;9.160;2022-10-31T14:52:38;98558.06;;;17.63;85.42
141;BME280;65;48.778;9.160;2022-10-31T14:55:11;98569.00;;;18.02;84.31
141;BME280;65;48.778;9.160;2022-10-31T14:57:47;98565.53;;;17.90;83.79
141;BME280;65;48.778;9.160;2022-10-31T15:00:19;98568.44;;;17.36;89.06
141;BME280;65;48.778;9.160;2022-10-31T15:02:53;98562.78;;;16.97;89.33
141;BME280;65;48.778;9.160;2022-10-31T15:05:25;98559.81;;;16.80;90.95
141;BME280;65;48.778;9.160;2022-10-31T15:07:56;98562.13;;;16.62;92.31
141;BME280;65;48.778;9.160;2022-10-31T15:10:27;98571.00;;;16.51;93.86
141;BME280;65;48.778;9.160;2022-10-31T15:12:55;98567.88;;;16.46;95.40
141;BME280;65;48.778;9.160;2022-10-31T15:15:24;98560.88;;;16.34;95.39
141;BME280;65;48.778;9.160;2022-10-31T15:17:56;98559.78;;;16.25;95.94
141;BME280;65;48.778;9.160;2022-10-31T15:20:28;98557.09;;;16.14;95.92
141;BME280;65;48.778;9.160;2022-10-31T15:22:56;98552.75;;;16.02;96.26
141;BME280;65;48.778;9.160;2022-10-31T15:25:24;98553.13;;;15.86;97.79
141;BME280;65;48.778;9.160;2022-10-31T15:27:51;98553.50;;;15.70;98.60
141;BME280;65;48.778;9.160;2022-10-31T15:32:46;98556.78;;;15.39;100.00
141;BME280;65;48.778;9.160;2022-10-31T15:35:26;98555.19;;;15.25;100.00
141;BME280;65;48.778;9.160;2022-10-31T15:37:52;98544.75;;;15.11;100.00
141;BME280;65;48.778;9.160;2022-10-31T15:40:20;98535.22;;;14.96;100.00
141;BME280;65;48.778;9.160;2022-10-31T15:42:56;98539.16;;;14.79;100.00
141;BME280;65;48.778;9.160;2022-10-31T15:45:24;98543.47;;;14.69;100.00
141;BME280;65;48.778;9.160;2022-10-31T15:47:57;98543.91;;;14.63;100.00
141;BME280;65;48.778;9.160;2022-10-31T15:51:08;98545.34;;;14.55;100.00
141;BME280;65;48.778;9.160;2022-10-31T15:53:26;98546.97;;;14.45;100.00
141;BME280;65;48.778;9.160;2022-10-31T15:55:57;98543.13;;;14.37;100.00
141;BME280;65;48.778;9.160;2022-10-31T15:58:25;98534.63;;;14.32;100.00
141;BME280;65;48.778;9.160;2022-10-31T16:01:05;98540.41;;;14.25;100.00
141;BME280;65;48.778;9.160;2022-10-31T16:03:33;98532.66;;;14.22;100.00
141;BME280;65;48.778;9.160;2022-10-31T16:06:03;98535.31;;;14.22;100.00
141;BME280;65;48.778;9.160;2022-10-31T16:11:35;98542.66;;;14.19;100.00
141;BME280;65;48.778;9.160;2022-10-31T16:14:05;98542.44;;;14.22;100.00
141;BME280;65;48.778;9.160;2022-10-31T16:16:34;98529.75;;;14.25;100.00
141;BME280;65;48.778;9.160;2022-10-31T16:19:59;98534.56;;;14.20;100.00